sensor_id;sensor_type;location;lat;lon;timestamp;P1;durP1;ratioP1;P2;durP2;ratioP2
25936;SDS011;13733;51.178;4.450;2023-12-28T00:01:22;4.03;;;2.90;;
25936;SDS011;13733;51.178;4.450;2023-12-28T00:03:49;5.90;;;3.05;;
25936;SDS011;13733;51.178;4.450;2023-12-28T00:06:15;4.55;;;3.25;;
25936;SDS011;13733;51.178;4.450;2023-12-28T00:08:41;4.10;;;3.00;;
25936;SDS011;13733;51.178;4.450;2023-12-28T00:11:07;6.72;;;2.75;;
25936;SDS011;13733;51.178;4.450;2023-12-28T00:13:33;5.40;;;2.83;;
25936;SDS011;13733;51.178;4.450;2023-12-28T00:15:59;7.75;;;3.00;;
25936;SDS011;13733;51.178;4.450;2023-12-28T00:18:25;4.85;;;3.00;;
25936;SDS011;13733;51.178;4.450;2023-12-28T00:20:50;5.57;;;2.85;;
25936;SDS011;13733;51.178;4.450;2023-12-28T00:23:19;4.60;;;2.78;;
25936;SDS011;13733;51.178;4.450;2023-12-28T00:25:47;6.70;;;2.47;;
25936;SDS011;13733;51.178;4.450;2023-12-28T00:28:13;4.95;;;3.05;;
25936;SDS011;13733;51.178;4.450;2023-12-28T00:30:39;5.13;;;2.95;;
25936;SDS011;13733;51.178;4.450;2023-12-28T00:33:05;3.90;;;2.60;;
25936;SDS011;13733;51.178;4.450;2023-12-28T00:35:32;6.32;;;3.08;;
25936;SDS011;13733;51.178;4.450;2023-12-28T00:37:58;3.55;;;2.60;;
25936;SDS011;13733;51.178;4.450;2023-12-28T00:40:23;4.22;;;3.22;;
25936;SDS011;13733;51.178;4.450;2023-12-28T00:42:50;6.10;;;3.03;;
25936;SDS011;13733;51.178;4.450;2023-12-28T00:45:16;6.90;;;3.00;;
25936;SDS011;13733;51.178;4.450;2023-12-28T00:47:42;4.07;;;2.88;;
25936;SDS011;13733;51.178;4.450;2023-12-28T00:50:08;3.53;;;2.40;;
25936;SDS011;13733;51.178;4.450;2023-12-28T00:52:40;6.13;;;3.10;;
25936;SDS011;13733;51.178;4.450;2023-12-28T00:55:06;7.03;;;2.80;;
25936;SDS011;13733;51.178;4.450;2023-12-28T00:57:33;6.13;;;2.90;;
25936;SDS011;13733;51.178;4.450;2023-12-28T01:00:00;6.00;;;2.70;;
25936;SDS011;13733;51.178;4.450;2023-12-28T01:02:26;5.30;;;3.08;;
25936;SDS011;13733;51.178;4.450;2023-12-28T01:04:52;5.82;;;2.72;;
25936;SDS011;13733;51.178;4.450;2023-12-28T01:07:18;6.38;;;3.00;;
25936;SDS011;13733;51.178;4.450;2023-12-28T01:09:44;7.35;;;2.92;;
25936;SDS011;13733;51.178;4.450;2023-12-28T01:12:10;6.18;;;2.85;;
25936;SDS011;13733;51.178;4.450;2023-12-28T01:14:36;5.32;;;3.10;;
25936;SDS011;13733;51.178;4.450;2023-12-28T01:17:02;7.93;;;2.83;;
25936;SDS011;13733;51.178;4.450;2023-12-28T01:19:27;6.88;;;2.72;;
25936;SDS011;13733;51.178;4.450;2023-12-28T01:21:53;10.65;;;3.10;;
25936;SDS011;13733;51.178;4.450;2023-12-28T01:24:20;6.00;;;2.88;;
25936;SDS011;13733;51.178;4.450;2023-12-28T01:26:46;5.47;;;2.47;;
25936;SDS011;13733;51.178;4.450;2023-12-28T01:29:12;5.72;;;2.25;;
25936;SDS011;13733;51.178;4.450;2023-12-28T01:31:38;8.68;;;2.88;;
25936;SDS011;13733;51.178;4.450;2023-12-28T01:34:04;4.57;;;2.60;;
25936;SDS011;13733;51.178;4.450;2023-12-28T01:36:32;8.25;;;3.38;;
25936;SDS011;13733;51.178;4.450;2023-12-28T01:38:58;9.70;;;2.72;;
25936;SDS011;13733;51.178;4.450;2023-12-28T01:41:24;9.10;;;3.08;;
25936;SDS011;13733;51.178;4.450;2023-12-28T01:43:51;7.15;;;3.10;;
25936;SDS011;13733;51.178;4.450;2023-12-28T01:46:17;6.15;;;3.22;;
25936;SDS011;13733;51.178;4.450;2023-12-28T01:48:44;7.07;;;3.10;;
25936;SDS011;13733;51.178;4.450;2023-12-28T01:51:12;6.43;;;3.05;;
25936;SDS011;13733;51.178;4.450;2023-12-28T01:53:40;6.45;;;2.58;;
25936;SDS011;13733;51.178;4.450;2023-12-28T01:56:10;6.93;;;2.78;;
25936;SDS011;13733;51.178;4.450;2023-12-28T01:58:36;6.28;;;3.15;;
25936;SDS011;13733;51.178;4.450;2023-12-28T02:01:05;7.50;;;2.65;;
25936;SDS011;13733;51.178;4.450;2023-12-28T02:03:33;4.72;;;2.75;;
25936;SDS011;13733;51.178;4.450;2023-12-28T02:05:59;6.25;;;2.63;;
25936;SDS011;13733;51.178;4.450;2023-12-28T02:08:27;5.07;;;2.75;;
25936;SDS011;13733;51.178;4.450;2023-12-28T02:10:53;5.97;;;2.90;;
25936;SDS011;13733;51.178;4.450;2023-12-28T02:13:20;4.20;;;2.80;;
25936;SDS011;13733;51.178;4.450;2023-12-28T02:15:47;9.48;;;3.08;;
25936;SDS011;13733;51.178;4.450;2023-12-28T02:18:35;6.25;;;2.63;;
25936;SDS011;13733;51.178;4.450;2023-12-28T02:21:06;4.85;;;2.40;;
25936;SDS011;13733;51.178;4.450;2023-12-28T02:23:34;6.68;;;3.22;;
25936;SDS011;13733;51.178;4.450;2023-12-28T02:26:00;7.07;;;2.97;;
25936;SDS011;13733;51.178;4.450;2023-12-28T02:28:26;5.57;;;2.70;;
25936;SDS011;13733;51.178;4.450;2023-12-28T02:30:52;5.88;;;2.85;;
25936;SDS011;13733;51.178;4.450;2023-12-28T02:33:24;7.00;;;3.20;;
25936;SDS011;13733;51.178;4.450;2023-12-28T02:36:01;8.52;;;3.00;;
25936;SDS011;13733;51.178;4.450;2023-12-28T02:38:30;6.70;;;2.63;;
25936;SDS011;13733;51.178;4.450;2023-12-28T02:41:01;8.77;;;3.00;;
25936;SDS011;13733;51.178;4.450;2023-12-28T02:43:28;8.77;;;3.42;;
25936;SDS011;13733;51.178;4.450;2023-12-28T02:45:56;10.15;;;2.80;;
25936;SDS011;13733;51.178;4.450;2023-12-28T02:48:21;5.55;;;2.75;;
25936;SDS011;13733;51.178;4.450;2023-12-28T02:50:47;7.30;;;3.00;;
25936;SDS011;13733;51.178;4.450;2023-12-28T02:53:15;8.77;;;2.92;;
25936;SDS011;13733;51.178;4.450;2023-12-28T02:55:40;10.05;;;3.45;;
25936;SDS011;13733;51.178;4.450;2023-12-28T02:58:06;7.65;;;2.90;;
25936;SDS011;13733;51.178;4.450;2023-12-28T03:00:32;10.88;;;2.55;;
25936;SDS011;13733;51.178;4.450;2023-12-28T03:02:58;6.65;;;2.30;;
25936;SDS011;13733;51.178;4.450;2023-12-28T03:05:24;6.68;;;2.55;;
25936;SDS011;13733;51.178;4.450;2023-12-28T03:07:50;8.30;;;3.17;;
25936;SDS011;13733;51.178;4.450;2023-12-28T03:10:17;9.13;;;2.85;;
25936;SDS011;13733;51.178;4.450;2023-12-28T03:12:43;6.72;;;2.80;;
25936;SDS011;13733;51.178;4.450;2023-12-28T03:15:09;7.88;;;3.13;;
25936;SDS011;13733;51.178;4.450;2023-12-28T03:17:35;7.55;;;2.83;;
25936;SDS011;13733;51.178;4.450;2023-12-28T03:20:02;12.45;;;3.28;;
25936;SDS011;13733;51.178;4.450;2023-12-28T03:22:28;6.30;;;2.55;;
25936;SDS011;13733;51.178;4.450;2023-12-28T03:24:54;10.43;;;2.67;;
25936;SDS011;13733;51.178;4.450;2023-12-28T03:27:21;11.50;;;3.15;;
25936;SDS011;13733;51.178;4.450;2023-12-28T03:29:47;12.52;;;2.95;;
25936;SDS011;13733;51.178;4.450;2023-12-28T03:32:13;8.88;;;3.10;;
25936;SDS011;13733;51.178;4.450;2023-12-28T03:34:39;8.45;;;2.60;;
25936;SDS011;13733;51.178;4.450;2023-12-28T03:37:05;9.02;;;3.10;;
25936;SDS011;13733;51.178;4.450;2023-12-28T03:39:32;10.40;;;2.92;;
25936;SDS011;13733;51.178;4.450;2023-12-28T03:41:59;6.00;;;2.70;;
25936;SDS011;13733;51.178;4.450;2023-12-28T03:44:25;4.93;;;2.63;;
25936;SDS011;13733;51.178;4.450;2023-12-28T03:46:50;10.02;;;3.05;;
25936;SDS011;13733;51.178;4.450;2023-12-28T03:49:20;6.95;;;2.88;;
25936;SDS011;13733;51.178;4.450;2023-12-28T03:51:47;6.40;;;2.67;;
25936;SDS011;13733;51.178;4.450;2023-12-28T03:54:18;8.65;;;3.17;;
25936;SDS011;13733;51.178;4.450;2023-12-28T03:56:45;7.57;;;2.75;;
25936;SDS011;13733;51.178;4.450;2023-12-28T03:59:11;10.95;;;3.22;;
25936;SDS011;13733;51.178;4.450;2023-12-28T04:01:37;9.25;;;2.72;;
25936;SDS011;13733;51.178;4.450;2023-12-28T04:04:03;10.98;;;3.00;;
25936;SDS011;13733;51.178;4.450;2023-12-28T04:06:29;8.80;;;2.95;;
25936;SDS011;13733;51.178;4.450;2023-12-28T04:08:56;8.27;;;2.70;;
25936;SDS011;13733;51.178;4.450;2023-12-28T04:11:22;9.68;;;2.75;;
25936;SDS011;13733;51.178;4.450;2023-12-28T04:13:48;11.68;;;2.88;;
25936;SDS011;13733;51.178;4.450;2023-12-28T04:16:14;15.57;;;3.17;;
25936;SDS011;13733;51.178;4.450;2023-12-28T04:18:41;11.57;;;3.45;;
25936;SDS011;13733;51.178;4.450;2023-12-28T04:21:10;9.85;;;3.00;;
25936;SDS011;13733;51.178;4.450;2023-12-28T04:23:40;9.23;;;2.70;;
25936;SDS011;13733;51.178;4.450;2023-12-28T04:26:06;16.08;;;3.40;;
25936;SDS011;13733;51.178;4.450;2023-12-28T04:28:32;10.55;;;3.08;;
25936;SDS011;13733;51.178;4.450;2023-12-28T04:31:03;10.98;;;3.15;;
25936;SDS011;13733;51.178;4.450;2023-12-28T04:33:30;10.05;;;2.90;;
25936;SDS011;13733;51.178;4.450;2023-12-28T04:35:56;10.23;;;3.75;;
25936;SDS011;13733;51.178;4.450;2023-12-28T04:38:22;12.65;;;2.80;;
25936;SDS011;13733;51.178;4.450;2023-12-28T04:40:50;14.05;;;3.10;;
25936;SDS011;13733;51.178;4.450;2023-12-28T04:43:15;11.43;;;3.08;;
25936;SDS011;13733;51.178;4.450;2023-12-28T04:45:41;12.20;;;2.75;;
25936;SDS011;13733;51.178;4.450;2023-12-28T04:48:08;15.95;;;3.88;;
25936;SDS011;13733;51.178;4.450;2023-12-28T04:50:33;12.02;;;2.92;;
25936;SDS011;13733;51.178;4.450;2023-12-28T04:52:59;8.27;;;2.58;;
25936;SDS011;13733;51.178;4.450;2023-12-28T04:55:25;10.65;;;2.88;;
25936;SDS011;13733;51.178;4.450;2023-12-28T04:57:50;12.80;;;3.17;;
25936;SDS011;13733;51.178;4.450;2023-12-28T05:00:17;10.50;;;3.00;;
25936;SDS011;13733;51.178;4.450;2023-12-28T05:02:45;17.27;;;3.72;;
25936;SDS011;13733;51.178;4.450;2023-12-28T05:05:13;16.92;;;3.35;;
25936;SDS011;13733;51.178;4.450;2023-12-28T05:07:40;15.45;;;3.03;;
25936;SDS011;13733;51.178;4.450;2023-12-28T05:10:06;13.68;;;2.58;;
25936;SDS011;13733;51.178;4.450;2023-12-28T05:12:32;10.65;;;2.58;;
25936;SDS011;13733;51.178;4.450;2023-12-28T05:14:57;13.18;;;3.10;;
25936;SDS011;13733;51.178;4.450;2023-12-28T05:17:23;19.75;;;4.00;;
25936;SDS011;13733;51.178;4.450;2023-12-28T05:19:49;15.52;;;3.35;;
25936;SDS011;13733;51.178;4.450;2023-12-28T05:22:15;14.05;;;3.28;;
25936;SDS011;13733;51.178;4.450;2023-12-28T05:24:41;17.10;;;2.75;;
25936;SDS011;13733;51.178;4.450;2023-12-28T05:27:07;10.40;;;3.05;;
25936;SDS011;13733;51.178;4.450;2023-12-28T05:29:33;16.90;;;3.30;;
25936;SDS011;13733;51.178;4.450;2023-12-28T05:31:58;13.70;;;3.15;;
25936;SDS011;13733;51.178;4.450;2023-12-28T05:34:24;12.13;;;2.67;;
25936;SDS011;13733;51.178;4.450;2023-12-28T05:36:50;13.73;;;3.25;;
25936;SDS011;13733;51.178;4.450;2023-12-28T05:39:15;17.17;;;3.38;;
25936;SDS011;13733;51.178;4.450;2023-12-28T05:41:41;11.57;;;2.58;;
25936;SDS011;13733;51.178;4.450;2023-12-28T05:44:07;10.23;;;2.65;;
25936;SDS011;13733;51.178;4.450;2023-12-28T05:46:33;12.50;;;3.13;;
25936;SDS011;13733;51.178;4.450;2023-12-28T05:48:58;11.80;;;3.03;;
25936;SDS011;13733;51.178;4.450;2023-12-28T05:51:24;12.43;;;2.63;;
25936;SDS011;13733;51.178;4.450;2023-12-28T05:53:50;15.60;;;3.55;;
25936;SDS011;13733;51.178;4.450;2023-12-28T05:56:18;19.15;;;3.72;;
25936;SDS011;13733;51.178;4.450;2023-12-28T05:58:45;16.05;;;3.20;;
25936;SDS011;13733;51.178;4.450;2023-12-28T06:01:11;13.52;;;3.25;;
25936;SDS011;13733;51.178;4.450;2023-12-28T06:03:37;16.13;;;3.15;;
25936;SDS011;13733;51.178;4.450;2023-12-28T06:06:03;18.73;;;3.40;;
25936;SDS011;13733;51.178;4.450;2023-12-28T06:08:29;16.02;;;3.15;;
25936;SDS011;13733;51.178;4.450;2023-12-28T06:10:55;17.58;;;3.72;;
25936;SDS011;13733;51.178;4.450;2023-12-28T06:13:20;15.95;;;3.15;;
25936;SDS011;13733;51.178;4.450;2023-12-28T06:15:46;14.52;;;3.22;;
25936;SDS011;13733;51.178;4.450;2023-12-28T06:18:12;14.07;;;3.33;;
25936;SDS011;13733;51.178;4.450;2023-12-28T06:20:37;23.50;;;3.95;;
25936;SDS011;13733;51.178;4.450;2023-12-28T06:23:03;18.95;;;3.55;;
25936;SDS011;13733;51.178;4.450;2023-12-28T06:25:29;17.70;;;3.25;;
25936;SDS011;13733;51.178;4.450;2023-12-28T06:27:54;16.33;;;3.50;;
25936;SDS011;13733;51.178;4.450;2023-12-28T06:30:20;13.43;;;3.45;;
25936;SDS011;13733;51.178;4.450;2023-12-28T06:32:46;16.48;;;2.88;;
25936;SDS011;13733;51.178;4.450;2023-12-28T06:35:12;15.20;;;3.55;;
25936;SDS011;13733;51.178;4.450;2023-12-28T06:37:37;15.82;;;2.97;;
25936;SDS011;13733;51.178;4.450;2023-12-28T06:40:03;14.63;;;3.08;;
25936;SDS011;13733;51.178;4.450;2023-12-28T06:42:30;15.68;;;3.33;;
25936;SDS011;13733;51.178;4.450;2023-12-28T06:44:55;21.48;;;3.53;;
25936;SDS011;13733;51.178;4.450;2023-12-28T06:47:21;18.38;;;3.40;;
25936;SDS011;13733;51.178;4.450;2023-12-28T06:49:47;16.20;;;3.83;;
25936;SDS011;13733;51.178;4.450;2023-12-28T06:52:12;16.88;;;3.47;;
25936;SDS011;13733;51.178;4.450;2023-12-28T06:54:38;16.05;;;3.10;;
25936;SDS011;13733;51.178;4.450;2023-12-28T06:57:04;21.83;;;3.47;;
25936;SDS011;13733;51.178;4.450;2023-12-28T06:59:30;11.43;;;2.65;;
25936;SDS011;13733;51.178;4.450;2023-12-28T07:01:56;17.00;;;3.28;;
25936;SDS011;13733;51.178;4.450;2023-12-28T07:04:21;21.38;;;3.40;;
25936;SDS011;13733;51.178;4.450;2023-12-28T07:06:50;16.48;;;3.05;;
25936;SDS011;13733;51.178;4.450;2023-12-28T07:09:16;21.48;;;4.30;;
25936;SDS011;13733;51.178;4.450;2023-12-28T07:11:42;14.18;;;3.10;;
25936;SDS011;13733;51.178;4.450;2023-12-28T07:14:07;14.35;;;2.92;;
25936;SDS011;13733;51.178;4.450;2023-12-28T07:16:33;17.05;;;4.05;;
25936;SDS011;13733;51.178;4.450;2023-12-28T07:18:59;19.58;;;3.25;;
25936;SDS011;13733;51.178;4.450;2023-12-28T07:21:25;24.70;;;4.20;;
25936;SDS011;13733;51.178;4.450;2023-12-28T07:23:50;15.23;;;3.50;;
25936;SDS011;13733;51.178;4.450;2023-12-28T07:26:16;15.77;;;3.30;;
25936;SDS011;13733;51.178;4.450;2023-12-28T07:28:42;14.32;;;3.10;;
25936;SDS011;13733;51.178;4.450;2023-12-28T07:31:10;21.05;;;3.65;;
25936;SDS011;13733;51.178;4.450;2023-12-28T07:33:36;18.38;;;3.70;;
25936;SDS011;13733;51.178;4.450;2023-12-28T07:36:01;26.83;;;3.63;;
25936;SDS011;13733;51.178;4.450;2023-12-28T07:38:28;19.70;;;4.22;;
25936;SDS011;13733;51.178;4.450;2023-12-28T07:40:54;21.70;;;3.53;;
25936;SDS011;13733;51.178;4.450;2023-12-28T07:43:20;20.33;;;3.85;;
25936;SDS011;13733;51.178;4.450;2023-12-28T07:45:45;17.88;;;3.15;;
25936;SDS011;13733;51.178;4.450;2023-12-28T07:48:11;16.60;;;3.08;;
25936;SDS011;13733;51.178;4.450;2023-12-28T07:50:38;21.73;;;3.75;;
25936;SDS011;13733;51.178;4.450;2023-12-28T07:53:04;20.27;;;3.78;;
25936;SDS011;13733;51.178;4.450;2023-12-28T07:55:29;23.17;;;4.10;;
25936;SDS011;13733;51.178;4.450;2023-12-28T07:57:55;21.88;;;3.95;;
25936;SDS011;13733;51.178;4.450;2023-12-28T08:00:21;15.35;;;3.17;;
25936;SDS011;13733;51.178;4.450;2023-12-28T08:02:47;19.85;;;3.45;;
25936;SDS011;13733;51.178;4.450;2023-12-28T08:05:13;19.38;;;3.67;;
25936;SDS011;13733;51.178;4.450;2023-12-28T08:07:38;18.05;;;3.50;;
25936;SDS011;13733;51.178;4.450;2023-12-28T08:10:04;18.05;;;3.35;;
25936;SDS011;13733;51.178;4.450;2023-12-28T08:12:30;22.15;;;3.65;;
25936;SDS011;13733;51.178;4.450;2023-12-28T08:14:56;23.17;;;3.60;;
25936;SDS011;13733;51.178;4.450;2023-12-28T08:17:23;20.80;;;3.42;;
25936;SDS011;13733;51.178;4.450;2023-12-28T08:19:50;17.27;;;3.13;;
25936;SDS011;13733;51.178;4.450;2023-12-28T08:22:15;17.48;;;3.28;;
25936;SDS011;13733;51.178;4.450;2023-12-28T08:24:41;19.13;;;3.58;;
25936;SDS011;13733;51.178;4.450;2023-12-28T08:27:07;21.40;;;3.60;;
25936;SDS011;13733;51.178;4.450;2023-12-28T08:29:34;21.52;;;4.22;;
25936;SDS011;13733;51.178;4.450;2023-12-28T08:32:00;14.93;;;2.95;;
25936;SDS011;13733;51.178;4.450;2023-12-28T08:34:25;18.33;;;3.30;;
25936;SDS011;13733;51.178;4.450;2023-12-28T08:36:53;16.52;;;3.65;;
25936;SDS011;13733;51.178;4.450;2023-12-28T08:39:18;18.75;;;3.92;;
25936;SDS011;13733;51.178;4.450;2023-12-28T08:41:44;19.08;;;3.55;;
25936;SDS011;13733;51.178;4.450;2023-12-28T08:44:10;21.70;;;3.80;;
25936;SDS011;13733;51.178;4.450;2023-12-28T08:46:36;20.45;;;3.60;;
25936;SDS011;13733;51.178;4.450;2023-12-28T08:49:02;20.15;;;3.95;;
25936;SDS011;13733;51.178;4.450;2023-12-28T08:51:28;16.08;;;3.60;;
25936;SDS011;13733;51.178;4.450;2023-12-28T08:53:54;21.83;;;3.70;;
25936;SDS011;13733;51.178;4.450;2023-12-28T08:56:20;16.58;;;3.55;;
25936;SDS011;13733;51.178;4.450;2023-12-28T08:58:46;18.50;;;3.50;;
25936;SDS011;13733;51.178;4.450;2023-12-28T09:01:16;18.35;;;3.80;;
25936;SDS011;13733;51.178;4.450;2023-12-28T09:03:43;18.67;;;4.00;;
25936;SDS011;13733;51.178;4.450;2023-12-28T09:06:09;17.17;;;3.83;;
25936;SDS011;13733;51.178;4.450;2023-12-28T09:08:34;21.30;;;3.50;;
